Mays, Indiana
Current Conditions -  °F | °C
As of 4:53 AM on Thursday 23 Oct 2014 (Local Time) from KGEZ Reporting Station
Moderate Fog Moderate Fog  
Wind Chill: 33°   Ceiling: 300
Heat Index: 33°   Visibility: 0.25mi
Dew Point: 31°   Wind: 0mph
Humidity: 92%   Direction: NA
Pressure: 30.26"   Gusts: NA
Location:  39.74°N, 85.43°W
Report Text: KGEZ 230853Z AUTO 00000KT 1/4SM FG VV003 01/M01 A3026 RMK AO2 SLP249 T00061006 58006
Loading
Personal Weather Stations






























Interactive Weather Map
Tropical Storm Tracking
New forecast layout! Learn more

10-Day Weather Forecast

Advertisements
Track Severe Weather on mobile